Time;durP1;ratioP1;P1;durP2;ratioP2;P2;SDS_P1;SDS_P2;PMS_P1;PMS_P2;Temp;Humidity;BMP_temperature;BMP_pressure;BME280_temperature;BME280_humidity;BME280_pressure;Samples;Min_cycle;Max_cycle;Signal;HPM_P1;HPM_P2
2021/06/22 00:00:49;;;;;;;7.23;4.20;;;;;;;;;;4992937;28;20407;-67
2021/06/22 00:03:15;;;;;;;7.90;3.60;;;;;;;;;;4990234;28;20909;-68
2021/06/22 00:05:41;;;;;;;7.00;4.37;;;;;;;;;;4992827;28;20400;-68
2021/06/22 00:08:07;;;;;;;7.50;4.53;;;;;;;;;;4991117;28;20542;-68
2021/06/22 00:10:33;;;;;;;6.30;4.20;;;;;;;;;;4992805;28;20401;-68
2021/06/22 00:13:00;;;;;;;5.00;3.70;;;;;;;;;;4991390;28;20432;-68
2021/06/22 00:15:27;;;;;;;5.50;4.03;;;;;;;;;;4992377;28;20475;-68
2021/06/22 00:17:53;;;;;;;6.80;3.77;;;;;;;;;;4991151;28;20431;-68
2021/06/22 00:20:21;;;;;;;9.77;4.27;;;;;;;;;;4992391;28;20793;-67
2021/06/22 00:22:47;;;;;;;7.30;4.17;;;;;;;;;;4995442;28;20429;-68
2021/06/22 00:25:15;;;;;;;7.90;3.40;;;;;;;;;;4996232;28;20774;-67
2021/06/22 00:27:41;;;;;;;10.43;4.00;;;;;;;;;;4995105;28;20440;-68
2021/06/22 00:30:08;;;;;;;7.47;4.17;;;;;;;;;;4996067;28;20519;-67
2021/06/22 00:32:34;;;;;;;5.60;4.10;;;;;;;;;;4994828;28;20408;-68
2021/06/22 00:35:00;;;;;;;13.33;4.70;;;;;;;;;;4978367;28;20927;-67
2021/06/22 00:37:26;;;;;;;13.27;4.77;;;;;;;;;;4992121;28;20503;-67
2021/06/22 00:39:52;;;;;;;6.67;4.70;;;;;;;;;;4995428;28;20889;-67
2021/06/22 00:42:18;;;;;;;10.03;4.93;;;;;;;;;;4994520;28;20424;-67
2021/06/22 00:44:45;;;;;;;10.73;5.00;;;;;;;;;;4994582;28;20462;-67
2021/06/22 00:47:11;;;;;;;14.60;6.57;;;;;;;;;;4995645;28;20443;-68
2021/06/22 00:49:37;;;;;;;7.73;4.97;;;;;;;;;;4993631;28;20650;-67
2021/06/22 00:52:03;;;;;;;11.50;4.93;;;;;;;;;;4995576;28;20397;-67
2021/06/22 00:54:29;;;;;;;7.67;4.40;;;;;;;;;;4994453;28;20432;-67
2021/06/22 00:56:55;;;;;;;12.47;6.57;;;;;;;;;;4995235;28;20475;-67
2021/06/22 00:59:21;;;;;;;8.53;4.83;;;;;;;;;;4994265;28;20459;-66
2021/06/22 01:01:47;;;;;;;11.83;4.90;;;;;;;;;;4995209;28;20491;-66
2021/06/22 01:04:13;;;;;;;9.50;4.27;;;;;;;;;;4993095;28;20788;-67
2021/06/22 01:06:39;;;;;;;8.67;4.90;;;;;;;;;;4995217;28;20488;-67
2021/06/22 01:09:06;;;;;;;7.40;4.50;;;;;;;;;;4992882;28;20551;-67
2021/06/22 01:11:32;;;;;;;8.40;3.70;;;;;;;;;;4994946;28;20405;-67
2021/06/22 01:13:58;;;;;;;5.20;3.60;;;;;;;;;;4993914;28;20929;-71
2021/06/22 01:16:25;;;;;;;4.23;3.53;;;;;;;;;;4994387;28;20456;-67
2021/06/22 01:19:01;;;;;;;8.57;4.00;;;;;;;;;;4992793;28;20499;-67
2021/06/22 01:21:28;;;;;;;5.43;3.17;;;;;;;;;;4995017;28;20428;-67
2021/06/22 01:23:54;;;;;;;5.13;3.10;;;;;;;;;;4993849;28;20429;-67
2021/06/22 01:26:20;;;;;;;6.40;3.07;;;;;;;;;;4994779;28;20405;-67
2021/06/22 01:28:46;;;;;;;4.90;3.57;;;;;;;;;;4993470;28;20937;-67
2021/06/22 01:31:13;;;;;;;8.30;3.43;;;;;;;;;;4994927;28;20465;-67
2021/06/22 01:33:39;;;;;;;7.00;3.67;;;;;;;;;;4992770;28;20432;-67
2021/06/22 01:36:05;;;;;;;6.13;4.07;;;;;;;;;;4994478;28;20459;-67
2021/06/22 01:38:31;;;;;;;8.10;3.00;;;;;;;;;;4993595;28;20498;-67
2021/06/22 01:40:57;;;;;;;7.93;4.70;;;;;;;;;;4994848;28;20479;-67
2021/06/22 01:43:24;;;;;;;7.60;4.00;;;;;;;;;;4990652;28;20532;-67
2021/06/22 01:45:50;;;;;;;4.50;3.30;;;;;;;;;;4992542;28;20440;-72
2021/06/22 01:48:16;;;;;;;7.33;2.77;;;;;;;;;;4982864;28;20455;-67
2021/06/22 01:50:42;;;;;;;6.70;3.07;;;;;;;;;;4981732;28;20449;-67
2021/06/22 01:53:08;;;;;;;4.97;3.20;;;;;;;;;;4975057;28;20493;-67
2021/06/22 01:55:39;;;;;;;6.80;2.63;;;;;;;;;;4973713;28;20507;-67
2021/06/22 01:58:07;;;;;;;8.23;3.03;;;;;;;;;;4995334;28;20702;-66
2021/06/22 02:00:33;;;;;;;9.00;3.17;;;;;;;;;;4994828;28;20440;-66
2021/06/22 02:02:59;;;;;;;6.77;3.00;;;;;;;;;;4994996;28;20428;-67
2021/06/22 02:05:25;;;;;;;4.40;2.67;;;;;;;;;;4993736;28;20830;-66
2021/06/22 02:07:51;;;;;;;5.23;3.37;;;;;;;;;;4994279;28;20404;-66
2021/06/22 02:10:17;;;;;;;5.03;3.60;;;;;;;;;;4993267;28;20484;-66
2021/06/22 02:12:43;;;;;;;3.80;2.87;;;;;;;;;;4994279;28;20408;-67
2021/06/22 02:15:10;;;;;;;9.00;3.60;;;;;;;;;;4994703;28;20436;-67
2021/06/22 02:17:36;;;;;;;5.53;3.43;;;;;;;;;;4996879;28;20451;-67
2021/06/22 02:20:04;;;;;;;6.13;3.40;;;;;;;;;;4975554;28;20791;-68
2021/06/22 02:22:30;;;;;;;6.50;3.50;;;;;;;;;;4993343;28;20433;-66
2021/06/22 02:24:56;;;;;;;6.00;3.60;;;;;;;;;;4993089;28;20567;-66
2021/06/22 02:27:30;;;;;;;5.67;3.77;;;;;;;;;;4993862;28;20405;-66
2021/06/22 02:29:56;;;;;;;7.20;3.20;;;;;;;;;;4991560;28;20463;-66
2021/06/22 02:32:23;;;;;;;9.17;3.80;;;;;;;;;;4994023;28;20444;-66
2021/06/22 02:34:50;;;;;;;5.00;3.17;;;;;;;;;;4992787;28;20930;-66
2021/06/22 02:37:16;;;;;;;5.83;3.37;;;;;;;;;;4993710;28;20456;-66
2021/06/22 02:39:42;;;;;;;6.10;3.70;;;;;;;;;;4992436;28;20810;-66
2021/06/22 02:42:08;;;;;;;5.77;3.17;;;;;;;;;;4993512;28;20397;-66
2021/06/22 02:44:34;;;;;;;5.47;4.00;;;;;;;;;;4990894;28;20445;-66
2021/06/22 02:47:00;;;;;;;6.20;3.50;;;;;;;;;;4993370;28;20401;-66
2021/06/22 02:49:26;;;;;;;5.20;3.77;;;;;;;;;;4969299;28;20465;-66
2021/06/22 02:51:53;;;;;;;5.07;3.23;;;;;;;;;;4992529;28;20423;-66
2021/06/22 02:54:19;;;;;;;4.57;3.83;;;;;;;;;;4992198;28;20486;-66
2021/06/22 02:56:45;;;;;;;7.60;4.53;;;;;;;;;;4992132;28;20551;-66
2021/06/22 02:59:11;;;;;;;6.07;3.10;;;;;;;;;;4991243;28;20440;-66
2021/06/22 03:01:37;;;;;;;6.00;2.83;;;;;;;;;;4991843;28;20455;-66
2021/06/22 03:04:03;;;;;;;3.67;3.07;;;;;;;;;;4992234;28;20433;-66
2021/06/22 03:06:29;;;;;;;5.20;3.10;;;;;;;;;;4993142;28;20481;-66
2021/06/22 03:08:55;;;;;;;5.20;3.20;;;;;;;;;;4993184;28;20935;-66
2021/06/22 03:11:21;;;;;;;5.97;2.87;;;;;;;;;;4990820;28;20563;-66
2021/06/22 03:13:47;;;;;;;7.07;3.63;;;;;;;;;;4993057;28;20451;-66
2021/06/22 03:16:13;;;;;;;5.53;2.87;;;;;;;;;;4991934;28;20555;-66
2021/06/22 03:18:39;;;;;;;5.70;3.17;;;;;;;;;;4988793;28;20441;-66
2021/06/22 03:21:05;;;;;;;3.50;3.07;;;;;;;;;;4989631;28;20435;-66
2021/06/22 03:23:31;;;;;;;6.70;3.60;;;;;;;;;;4991885;28;20456;-66
2021/06/22 03:25:57;;;;;;;5.87;3.30;;;;;;;;;;4992100;28;20436;-66
2021/06/22 03:28:23;;;;;;;5.57;3.73;;;;;;;;;;4992915;28;20435;-66
2021/06/22 03:30:49;;;;;;;5.07;3.27;;;;;;;;;;4991787;28;20860;-66
2021/06/22 03:33:17;;;;;;;11.40;3.23;;;;;;;;;;4992672;28;20492;-66
2021/06/22 03:35:43;;;;;;;5.13;3.23;;;;;;;;;;4991981;28;20432;-66
2021/06/22 03:38:09;;;;;;;4.80;3.30;;;;;;;;;;4993038;28;20495;-66
2021/06/22 03:40:35;;;;;;;5.63;2.90;;;;;;;;;;4991868;28;20432;-66
2021/06/22 03:43:02;;;;;;;5.40;3.00;;;;;;;;;;4992659;28;20421;-66
2021/06/22 03:45:28;;;;;;;7.33;3.50;;;;;;;;;;4991952;28;20464;-66
2021/06/22 03:47:54;;;;;;;8.87;3.47;;;;;;;;;;4993079;28;20479;-66
2021/06/22 03:50:20;;;;;;;4.30;3.10;;;;;;;;;;4980278;28;20999;-66
2021/06/22 03:52:46;;;;;;;4.13;3.07;;;;;;;;;;4982672;28;20558;-66
2021/06/22 03:55:31;;;;;;;6.00;3.80;;;;;;;;;;4973889;28;20447;-66
2021/06/22 03:58:01;;;;;;;4.83;3.43;;;;;;;;;;4996493;28;20471;-66
2021/06/22 04:00:28;;;;;;;5.90;2.87;;;;;;;;;;4995271;28;20901;-66
2021/06/22 04:02:59;;;;;;;4.33;2.73;;;;;;;;;;4996719;28;20474;-66
2021/06/22 04:05:25;;;;;;;4.43;2.73;;;;;;;;;;4995860;28;20416;-66
2021/06/22 04:07:51;;;;;;;5.17;2.97;;;;;;;;;;4997266;28;20404;-66
2021/06/22 04:10:17;;;;;;;3.33;2.60;;;;;;;;;;4995759;28;20952;-66
2021/06/22 04:12:44;;;;;;;5.30;2.40;;;;;;;;;;4996479;28;20412;-66
2021/06/22 04:15:10;;;;;;;7.30;3.77;;;;;;;;;;4993517;28;20420;-66
2021/06/22 04:17:37;;;;;;;3.43;2.50;;;;;;;;;;4996636;28;20527;-66
2021/06/22 04:20:04;;;;;;;3.10;2.50;;;;;;;;;;4995383;28;20464;-66
2021/06/22 04:22:30;;;;;;;3.53;2.60;;;;;;;;;;4996466;28;20412;-66
2021/06/22 04:24:56;;;;;;;4.57;2.30;;;;;;;;;;4995602;28;20797;-66
2021/06/22 04:27:22;;;;;;;4.67;2.80;;;;;;;;;;4996326;28;20968;-67
2021/06/22 04:29:48;;;;;;;5.87;3.20;;;;;;;;;;4995633;28;20460;-65
2021/06/22 04:32:14;;;;;;;4.70;2.63;;;;;;;;;;4995994;28;20419;-65
2021/06/22 04:34:40;;;;;;;9.13;3.03;;;;;;;;;;4996248;28;20412;-66
2021/06/22 04:37:06;;;;;;;8.77;3.70;;;;;;;;;;4995101;28;20538;-66
2021/06/22 04:39:32;;;;;;;4.63;3.00;;;;;;;;;;4978630;28;20460;-66
2021/06/22 04:41:58;;;;;;;6.47;2.90;;;;;;;;;;4995064;28;20436;-66
2021/06/22 04:44:25;;;;;;;3.53;2.57;;;;;;;;;;4995984;28;20503;-66
2021/06/22 04:46:51;;;;;;;6.27;3.20;;;;;;;;;;4992274;28;20433;-66
2021/06/22 04:49:17;;;;;;;4.07;2.80;;;;;;;;;;4995804;28;20511;-66
2021/06/22 04:51:43;;;;;;;4.40;3.17;;;;;;;;;;4994918;28;20768;-66
2021/06/22 04:54:10;;;;;;;7.40;3.17;;;;;;;;;;4995456;28;20471;-66
2021/06/22 04:56:37;;;;;;;4.40;2.87;;;;;;;;;;4994711;28;20467;-66
2021/06/22 04:59:03;;;;;;;3.57;2.57;;;;;;;;;;4995839;28;20421;-66
2021/06/22 05:01:30;;;;;;;3.37;2.43;;;;;;;;;;4994618;28;20467;-66
2021/06/22 05:03:56;;;;;;;4.47;1.93;;;;;;;;;;4995381;28;20420;-66
2021/06/22 05:06:22;;;;;;;3.80;2.43;;;;;;;;;;4977387;28;20518;-66
2021/06/22 05:08:48;;;;;;;4.70;2.30;;;;;;;;;;4994356;28;20432;-66
2021/06/22 05:11:14;;;;;;;3.90;2.27;;;;;;;;;;4994587;28;20444;-66
2021/06/22 05:13:41;;;;;;;3.20;2.17;;;;;;;;;;4995213;28;20583;-65
2021/06/22 05:16:07;;;;;;;3.90;2.33;;;;;;;;;;4976936;28;20464;-65
2021/06/22 05:18:34;;;;;;;4.17;1.90;;;;;;;;;;4995616;28;20443;-65
2021/06/22 05:21:00;;;;;;;5.43;2.40;;;;;;;;;;4993565;28;20435;-65
2021/06/22 05:23:26;;;;;;;4.27;2.97;;;;;;;;;;4995489;28;20411;-67
2021/06/22 05:25:52;;;;;;;5.67;2.33;;;;;;;;;;4994223;28;20430;-66
2021/06/22 05:28:18;;;;;;;3.77;2.30;;;;;;;;;;4994774;28;20417;-66
2021/06/22 05:30:44;;;;;;;3.63;2.27;;;;;;;;;;4994052;28;20976;-66
2021/06/22 05:33:10;;;;;;;5.73;2.20;;;;;;;;;;4995374;28;20810;-66
2021/06/22 05:35:36;;;;;;;4.80;1.80;;;;;;;;;;4993829;28;20428;-66
2021/06/22 05:38:02;;;;;;;3.57;2.10;;;;;;;;;;4994890;28;20404;-66
2021/06/22 05:40:28;;;;;;;2.60;1.80;;;;;;;;;;4994101;28;20800;-66
2021/06/22 05:42:54;;;;;;;3.57;1.80;;;;;;;;;;4994549;28;20847;-66
2021/06/22 05:45:20;;;;;;;3.93;1.97;;;;;;;;;;4991541;28;20424;-66
2021/06/22 05:47:46;;;;;;;3.57;1.83;;;;;;;;;;4994707;28;20897;-66
2021/06/22 05:50:13;;;;;;;4.10;1.53;;;;;;;;;;4992534;28;20584;-67
2021/06/22 05:52:39;;;;;;;5.30;2.00;;;;;;;;;;4981655;28;20429;-65
2021/06/22 05:55:16;;;;;;;6.80;2.23;;;;;;;;;;4993633;28;20519;-65
2021/06/22 05:57:43;;;;;;;2.90;2.30;;;;;;;;;;4994670;28;20448;-65
2021/06/22 06:00:11;;;;;;;9.53;1.93;;;;;;;;;;4993366;28;21051;-65
2021/06/22 06:02:37;;;;;;;5.40;2.60;;;;;;;;;;4993254;28;20429;-65
2021/06/22 06:05:03;;;;;;;3.30;1.93;;;;;;;;;;4993101;28;20536;-65
2021/06/22 06:07:30;;;;;;;4.97;2.63;;;;;;;;;;4994318;28;20902;-65
2021/06/22 06:09:57;;;;;;;3.77;2.10;;;;;;;;;;4993196;28;20482;-65
2021/06/22 06:12:23;;;;;;;4.37;2.30;;;;;;;;;;4994465;28;20496;-65
2021/06/22 06:14:49;;;;;;;4.47;2.20;;;;;;;;;;4993041;28;20483;-65
2021/06/22 06:17:15;;;;;;;5.53;2.50;;;;;;;;;;4994084;28;20448;-65
2021/06/22 06:19:41;;;;;;;6.10;2.30;;;;;;;;;;4993734;28;20417;-65
2021/06/22 06:22:07;;;;;;;3.90;2.63;;;;;;;;;;4993178;28;20432;-65
2021/06/22 06:24:33;;;;;;;5.90;2.23;;;;;;;;;;4989966;28;20424;-65
2021/06/22 06:27:06;;;;;;;6.40;2.93;;;;;;;;;;4993101;28;20428;-65
2021/06/22 06:32:17;;;;;;;7.63;2.33;;;;;;;;;;4994268;28;20456;-66
2021/06/22 06:34:43;;;;;;;8.33;3.30;;;;;;;;;;4993386;28;20424;-65
2021/06/22 06:37:09;;;;;;;4.63;2.10;;;;;;;;;;4993576;28;20458;-66
2021/06/22 06:39:35;;;;;;;2.73;1.80;;;;;;;;;;4993728;28;20519;-67
2021/06/22 06:42:01;;;;;;;6.20;1.90;;;;;;;;;;4992737;28;20483;-66
2021/06/22 06:44:27;;;;;;;4.07;2.40;;;;;;;;;;4993895;28;20407;-66
2021/06/22 06:46:53;;;;;;;5.80;1.90;;;;;;;;;;4992846;28;20433;-66
2021/06/22 06:49:19;;;;;;;3.97;2.17;;;;;;;;;;4993392;28;20459;-66
2021/06/22 06:51:45;;;;;;;5.87;1.80;;;;;;;;;;4990060;28;20511;-66
2021/06/22 06:54:11;;;;;;;6.73;1.90;;;;;;;;;;4992134;28;20536;-65
2021/06/22 06:56:37;;;;;;;3.60;1.67;;;;;;;;;;4989332;28;20936;-66
2021/06/22 06:59:03;;;;;;;4.27;1.77;;;;;;;;;;4977659;28;20448;-66
2021/06/22 07:01:29;;;;;;;7.00;2.20;;;;;;;;;;4986441;28;20471;-66
2021/06/22 07:03:56;;;;;;;3.03;2.00;;;;;;;;;;4992992;28;20482;-66
2021/06/22 07:06:22;;;;;;;6.13;2.40;;;;;;;;;;4987453;28;20432;-66
2021/06/22 07:08:48;;;;;;;4.70;2.30;;;;;;;;;;4988924;28;20444;-66
2021/06/22 07:11:18;;;;;;;3.33;1.80;;;;;;;;;;4988446;28;20435;-66
2021/06/22 07:13:45;;;;;;;3.43;1.73;;;;;;;;;;4959141;28;20932;-66
2021/06/22 07:16:11;;;;;;;3.80;1.90;;;;;;;;;;4971110;28;20517;-65
2021/06/22 07:18:37;;;;;;;11.70;2.73;;;;;;;;;;4986982;28;20557;-65
2021/06/22 07:21:03;;;;;;;4.00;2.10;;;;;;;;;;4990816;28;20425;-65
2021/06/22 07:23:29;;;;;;;4.40;1.63;;;;;;;;;;4990145;28;20416;-66
2021/06/22 07:25:55;;;;;;;4.97;2.10;;;;;;;;;;4974021;28;20426;-66
2021/06/22 07:28:21;;;;;;;2.67;1.80;;;;;;;;;;4991116;28;20437;-72
2021/06/22 07:30:47;;;;;;;4.43;2.03;;;;;;;;;;4991878;28;20434;-68
2021/06/22 07:33:13;;;;;;;4.43;1.70;;;;;;;;;;4993494;28;20475;-72
2021/06/22 07:35:39;;;;;;;6.97;2.20;;;;;;;;;;4995473;28;20458;-69
2021/06/22 07:38:05;;;;;;;3.00;1.70;;;;;;;;;;4995602;28;20937;-70
2021/06/22 07:40:31;;;;;;;3.73;2.17;;;;;;;;;;4993389;28;20788;-69
2021/06/22 07:42:58;;;;;;;5.37;2.20;;;;;;;;;;4995337;28;20459;-70
2021/06/22 07:45:24;;;;;;;5.60;1.97;;;;;;;;;;4993953;28;20454;-71
2021/06/22 07:47:50;;;;;;;4.13;2.33;;;;;;;;;;4994676;28;20804;-73
2021/06/22 07:50:16;;;;;;;2.60;1.80;;;;;;;;;;4995521;28;20752;-71
2021/06/22 07:52:43;;;;;;;6.80;1.80;;;;;;;;;;4991731;28;20504;-73
2021/06/22 07:55:15;;;;;;;3.97;1.57;;;;;;;;;;4993629;28;20433;-72
2021/06/22 07:57:46;;;;;;;3.43;1.40;;;;;;;;;;4992443;28;20538;-72
2021/06/22 08:00:20;;;;;;;4.00;1.80;;;;;;;;;;4989813;28;20484;-73
2021/06/22 08:02:46;;;;;;;5.20;1.90;;;;;;;;;;4994540;28;20490;-72
2021/06/22 08:05:13;;;;;;;5.03;1.90;;;;;;;;;;4977606;28;20404;-72
2021/06/22 08:07:39;;;;;;;6.97;2.20;;;;;;;;;;4996749;28;20455;-68
2021/06/22 08:10:05;;;;;;;4.73;1.30;;;;;;;;;;4978001;28;20451;-67
2021/06/22 08:12:31;;;;;;;2.50;1.53;;;;;;;;;;4993101;28;20431;-67
2021/06/22 08:14:57;;;;;;;7.47;1.93;;;;;;;;;;5002025;28;20760;-69
2021/06/22 08:17:23;;;;;;;3.10;1.73;;;;;;;;;;4994311;28;20475;-73
2021/06/22 08:19:49;;;;;;;4.90;1.93;;;;;;;;;;4994412;28;20502;-70
2021/06/22 08:22:15;;;;;;;2.63;1.63;;;;;;;;;;4997086;28;20836;-70
2021/06/22 08:24:41;;;;;;;4.00;1.60;;;;;;;;;;4995085;28;20413;-70
2021/06/22 08:27:07;;;;;;;2.73;1.70;;;;;;;;;;4993358;28;20428;-69
2021/06/22 08:29:33;;;;;;;3.70;1.73;;;;;;;;;;4995295;28;20439;-69
2021/06/22 08:31:59;;;;;;;3.70;1.43;;;;;;;;;;4990911;28;20487;-70
2021/06/22 08:34:25;;;;;;;3.90;2.20;;;;;;;;;;4994371;28;20421;-69
2021/06/22 08:36:51;;;;;;;3.40;2.00;;;;;;;;;;4992543;28;20559;-70
2021/06/22 08:39:17;;;;;;;7.23;2.07;;;;;;;;;;4993505;28;21083;-71
2021/06/22 08:41:46;;;;;;;3.90;2.10;;;;;;;;;;4994124;28;20446;-71
2021/06/22 08:44:13;;;;;;;4.90;2.13;;;;;;;;;;4993220;28;20996;-69
2021/06/22 08:46:39;;;;;;;6.87;2.17;;;;;;;;;;4991695;28;20432;-71
2021/06/22 08:49:05;;;;;;;5.87;2.13;;;;;;;;;;4995011;28;20543;-71
2021/06/22 08:51:31;;;;;;;6.20;2.10;;;;;;;;;;4989820;28;20741;-71
2021/06/22 08:53:58;;;;;;;4.73;1.73;;;;;;;;;;4987759;28;20435;-70
2021/06/22 08:56:25;;;;;;;4.63;1.60;;;;;;;;;;4973963;28;20772;-71
2021/06/22 08:58:52;;;;;;;8.03;3.30;;;;;;;;;;4992985;28;20441;-70
2021/06/22 09:01:18;;;;;;;4.47;1.60;;;;;;;;;;4991961;28;20969;-72
2021/06/22 09:03:45;;;;;;;5.20;2.03;;;;;;;;;;4994935;28;20456;-73
2021/06/22 09:06:11;;;;;;;5.00;1.60;;;;;;;;;;4988799;28;20468;-72
2021/06/22 09:08:37;;;;;;;3.50;1.47;;;;;;;;;;4991141;28;20953;-73
2021/06/22 09:11:11;;;;;;;4.40;1.37;;;;;;;;;;4974477;28;20441;-69
2021/06/22 09:13:39;;;;;;;3.13;1.73;;;;;;;;;;4989207;28;20499;-68
2021/06/22 09:16:07;;;;;;;6.43;2.17;;;;;;;;;;4991433;28;20500;-73
2021/06/22 09:18:33;;;;;;;6.20;1.93;;;;;;;;;;4990681;28;20482;-70
2021/06/22 09:21:04;;;;;;;4.37;2.07;;;;;;;;;;4982072;28;20432;-66
2021/06/22 09:23:32;;;;;;;5.20;2.20;;;;;;;;;;4996491;28;20428;-71
2021/06/22 09:25:59;;;;;;;5.40;1.90;;;;;;;;;;4992592;28;20424;-68
2021/06/22 09:28:29;;;;;;;3.00;1.80;;;;;;;;;;4992928;28;21099;-70
2021/06/22 09:30:57;;;;;;;6.33;1.53;;;;;;;;;;4976053;28;20496;-69
2021/06/22 09:33:36;;;;;;;4.10;1.80;;;;;;;;;;4974295;28;20424;-70
2021/06/22 09:36:04;;;;;;;3.63;2.17;;;;;;;;;;4982366;28;20460;-69
2021/06/22 09:38:36;;;;;;;4.20;2.23;;;;;;;;;;4992090;28;20444;-70
2021/06/22 09:41:04;;;;;;;6.53;2.03;;;;;;;;;;4988056;28;20433;-72
2021/06/22 09:43:41;;;;;;;8.67;1.60;;;;;;;;;;4989054;28;20429;-70
2021/06/22 09:46:08;;;;;;;3.70;1.73;;;;;;;;;;4987862;28;20444;-69
2021/06/22 09:48:54;;;;;;;2.90;1.53;;;;;;;;;;4992243;28;20472;-70
2021/06/22 09:51:29;;;;;;;4.43;2.10;;;;;;;;;;4978211;28;20432;-66
2021/06/22 09:53:56;;;;;;;5.10;1.93;;;;;;;;;;4989240;28;20430;-69
2021/06/22 09:56:25;;;;;;;4.47;2.30;;;;;;;;;;4990050;28;20491;-69
2021/06/22 09:58:52;;;;;;;4.17;1.90;;;;;;;;;;4992268;28;20452;-72
2021/06/22 10:01:35;;;;;;;3.23;1.93;;;;;;;;;;4992512;28;20416;-73
2021/06/22 10:04:36;;;;;;;4.63;1.90;;;;;;;;;;4987468;28;20431;-71
2021/06/22 10:07:03;;;;;;;5.27;2.13;;;;;;;;;;4942550;29;20911;-71
2021/06/22 10:09:30;;;;;;;4.23;2.00;;;;;;;;;;4983226;28;20460;-70
2021/06/22 10:12:01;;;;;;;3.03;1.57;;;;;;;;;;4990468;28;20429;-71
2021/06/22 10:14:28;;;;;;;6.67;1.60;;;;;;;;;;4988027;28;20506;-72
2021/06/22 10:16:55;;;;;;;8.30;2.10;;;;;;;;;;4993418;28;20460;-71
2021/06/22 10:19:23;;;;;;;4.80;1.90;;;;;;;;;;4987795;28;21094;-71
2021/06/22 10:21:49;;;;;;;7.00;2.00;;;;;;;;;;4984635;28;20438;-71
2021/06/22 10:24:15;;;;;;;2.97;1.57;;;;;;;;;;4991568;28;20424;-73
2021/06/22 10:26:42;;;;;;;2.60;1.50;;;;;;;;;;4989955;28;20432;-74
2021/06/22 10:29:08;;;;;;;3.60;1.87;;;;;;;;;;4992677;28;20444;-73
2021/06/22 10:31:35;;;;;;;4.43;1.77;;;;;;;;;;4985739;28;20420;-71
2021/06/22 10:34:01;;;;;;;3.40;1.90;;;;;;;;;;4990162;28;20424;-75
2021/06/22 10:36:32;;;;;;;3.20;1.50;;;;;;;;;;4991159;28;20484;-72
2021/06/22 10:39:09;;;;;;;3.23;1.77;;;;;;;;;;4990106;28;20948;-71
2021/06/22 10:41:37;;;;;;;6.67;2.10;;;;;;;;;;4992168;28;20435;-70
2021/06/22 10:44:07;;;;;;;3.70;2.20;;;;;;;;;;4987856;28;20410;-74
2021/06/22 10:46:33;;;;;;;2.77;1.67;;;;;;;;;;4976985;28;20507;-73
2021/06/22 10:49:16;;;;;;;5.10;2.17;;;;;;;;;;4988342;28;20475;-72
2021/06/22 10:51:45;;;;;;;4.00;1.70;;;;;;;;;;4986768;28;20433;-68
2021/06/22 10:54:13;;;;;;;4.17;2.10;;;;;;;;;;4974857;28;20431;-76
2021/06/22 10:56:42;;;;;;;5.30;2.10;;;;;;;;;;4992406;28;21029;-74
2021/06/22 10:59:14;;;;;;;8.10;3.40;;;;;;;;;;4987384;28;20448;-75
2021/06/22 11:02:08;;;;;;;3.40;2.20;;;;;;;;;;4983454;28;20445;-73
2021/06/22 11:04:34;;;;;;;3.33;2.03;;;;;;;;;;4985369;28;20424;-69
2021/06/22 11:07:04;;;;;;;4.60;1.97;;;;;;;;;;4991056;28;20467;-70
2021/06/22 11:09:30;;;;;;;3.07;1.60;;;;;;;;;;4968180;28;20483;-67
2021/06/22 11:12:15;;;;;;;5.53;2.37;;;;;;;;;;4987894;28;20440;-68
2021/06/22 11:14:59;;;;;;;4.10;1.80;;;;;;;;;;4990777;28;20428;-65
2021/06/22 11:17:44;;;;;;;2.43;1.53;;;;;;;;;;4991054;28;20474;-68
2021/06/22 11:20:13;;;;;;;2.63;1.70;;;;;;;;;;4988821;28;20502;-69
2021/06/22 11:22:58;;;;;;;5.33;2.23;;;;;;;;;;4991389;28;20460;-70
2021/06/22 11:25:24;;;;;;;5.30;2.27;;;;;;;;;;4983706;28;20413;-69
2021/06/22 11:28:02;;;;;;;7.13;2.23;;;;;;;;;;4988488;28;20421;-71
2021/06/22 11:30:48;;;;;;;4.80;1.93;;;;;;;;;;4991289;28;20599;-70
2021/06/22 11:33:29;;;;;;;2.70;1.57;;;;;;;;;;4990645;28;20792;-70
2021/06/22 11:36:14;;;;;;;4.30;2.37;;;;;;;;;;4990400;28;20424;-69
2021/06/22 11:38:40;;;;;;;2.73;1.87;;;;;;;;;;4990817;28;20506;-69
2021/06/22 11:41:13;;;;;;;3.70;1.87;;;;;;;;;;5003575;28;20947;-66
2021/06/22 11:43:58;;;;;;;2.93;1.63;;;;;;;;;;4989632;28;20421;-69
2021/06/22 11:46:30;;;;;;;6.30;1.80;;;;;;;;;;4981927;28;20848;-69
2021/06/22 11:48:57;;;;;;;2.97;1.33;;;;;;;;;;4987103;28;20968;-73
2021/06/22 11:51:41;;;;;;;4.40;1.63;;;;;;;;;;4977173;28;20936;-71
2021/06/22 11:54:07;;;;;;;4.30;1.83;;;;;;;;;;4992176;28;20437;-72
2021/06/22 11:56:34;;;;;;;4.27;1.80;;;;;;;;;;4990699;28;20467;-73
2021/06/22 11:59:01;;;;;;;6.70;1.80;;;;;;;;;;4984654;28;20831;-69
2021/06/22 12:01:27;;;;;;;3.73;1.73;;;;;;;;;;4984031;28;20422;-67
2021/06/22 12:03:54;;;;;;;3.47;1.60;;;;;;;;;;4991145;28;20444;-67
2021/06/22 12:06:24;;;;;;;2.50;1.70;;;;;;;;;;4989643;28;20451;-66
2021/06/22 12:08:50;;;;;;;3.03;1.90;;;;;;;;;;4986863;28;20968;-66
2021/06/22 12:11:33;;;;;;;6.87;2.10;;;;;;;;;;4990405;28;20800;-68
2021/06/22 12:13:59;;;;;;;7.53;2.23;;;;;;;;;;4986469;28;20511;-72
2021/06/22 12:16:27;;;;;;;2.67;1.87;;;;;;;;;;4991727;28;20509;-71
2021/06/22 12:18:54;;;;;;;3.70;2.37;;;;;;;;;;4995750;28;20455;-73
2021/06/22 12:21:20;;;;;;;5.77;2.17;;;;;;;;;;4994155;28;20534;-71
2021/06/22 12:23:47;;;;;;;4.63;2.03;;;;;;;;;;4994294;28;20514;-70
2021/06/22 12:26:15;;;;;;;2.93;2.30;;;;;;;;;;5005027;28;20485;-73
2021/06/22 12:28:42;;;;;;;6.10;2.60;;;;;;;;;;5007325;28;20451;-72
2021/06/22 12:31:09;;;;;;;6.60;2.57;;;;;;;;;;4994932;28;20412;-73
2021/06/22 12:33:39;;;;;;;4.73;2.60;;;;;;;;;;4991852;28;20428;-71
2021/06/22 12:36:06;;;;;;;3.40;2.70;;;;;;;;;;4996256;28;20413;-71
2021/06/22 12:38:38;;;;;;;2.83;2.57;;;;;;;;;;4993375;28;20532;-76
2021/06/22 12:41:06;;;;;;;4.80;2.30;;;;;;;;;;5007782;28;20445;-74
2021/06/22 12:43:44;;;;;;;3.43;2.00;;;;;;;;;;4994238;28;20429;-72
2021/06/22 12:46:11;;;;;;;3.57;2.30;;;;;;;;;;4991092;28;20432;-74
2021/06/22 12:48:37;;;;;;;3.37;2.67;;;;;;;;;;5006714;28;20981;-73
2021/06/22 12:51:04;;;;;;;4.13;2.60;;;;;;;;;;4994917;28;20870;-74
2021/06/22 12:53:30;;;;;;;4.97;2.70;;;;;;;;;;4993700;28;20420;-71
2021/06/22 12:56:13;;;;;;;2.47;1.77;;;;;;;;;;4995065;28;20461;-73
2021/06/22 12:58:46;;;;;;;3.20;1.83;;;;;;;;;;4993062;28;20536;-70
2021/06/22 13:01:27;;;;;;;5.20;2.27;;;;;;;;;;4993588;28;20424;-71
2021/06/22 13:03:53;;;;;;;3.40;1.93;;;;;;;;;;4993941;28;20799;-70
2021/06/22 13:06:33;;;;;;;3.90;1.77;;;;;;;;;;4994628;28;20510;-70
2021/06/22 13:09:00;;;;;;;3.33;2.00;;;;;;;;;;4994450;28;20440;-69
2021/06/22 13:11:28;;;;;;;4.27;2.03;;;;;;;;;;4994358;28;20424;-70
2021/06/22 13:14:05;;;;;;;3.33;2.60;;;;;;;;;;4993394;28;20495;-72
2021/06/22 13:16:31;;;;;;;6.77;2.00;;;;;;;;;;4995922;28;20506;-72
2021/06/22 13:19:00;;;;;;;3.60;1.83;;;;;;;;;;4994419;28;20467;-71
2021/06/22 13:21:43;;;;;;;3.90;2.73;;;;;;;;;;4998408;28;20428;-76
2021/06/22 13:24:10;;;;;;;3.07;1.40;;;;;;;;;;4986162;28;20748;-75
2021/06/22 13:26:38;;;;;;;4.43;2.00;;;;;;;;;;4994729;28;20988;-67
2021/06/22 13:29:04;;;;;;;4.80;2.13;;;;;;;;;;4993140;28;20549;-67
2021/06/22 13:31:30;;;;;;;3.70;1.80;;;;;;;;;;4976321;28;21023;-70
2021/06/22 13:34:09;;;;;;;3.53;1.80;;;;;;;;;;4993591;28;20414;-69
2021/06/22 13:36:37;;;;;;;7.13;2.50;;;;;;;;;;4995408;28;20467;-69
2021/06/22 13:39:13;;;;;;;6.00;2.63;;;;;;;;;;4993639;28;20819;-69
2021/06/22 13:41:47;;;;;;;7.43;3.97;;;;;;;;;;4994273;28;20944;-66
2021/06/22 13:44:13;;;;;;;5.73;3.50;;;;;;;;;;4979868;28;20794;-67
2021/06/22 13:46:39;;;;;;;9.13;4.13;;;;;;;;;;4988428;28;20408;-67
2021/06/22 13:49:06;;;;;;;5.63;3.77;;;;;;;;;;5003426;28;20502;-69
2021/06/22 13:51:33;;;;;;;5.20;3.97;;;;;;;;;;4976392;28;20960;-67
2021/06/22 13:54:10;;;;;;;6.20;3.83;;;;;;;;;;4994269;28;20873;-68
2021/06/22 13:56:36;;;;;;;5.60;4.20;;;;;;;;;;4995586;28;20461;-69
2021/06/22 13:59:03;;;;;;;4.90;4.40;;;;;;;;;;4992959;28;20536;-68
2021/06/22 14:01:29;;;;;;;8.03;5.63;;;;;;;;;;4976812;28;20442;-67
2021/06/22 14:03:56;;;;;;;7.40;5.00;;;;;;;;;;4994072;28;20468;-67
2021/06/22 14:06:22;;;;;;;7.27;5.20;;;;;;;;;;4994695;28;20448;-68
2021/06/22 14:08:48;;;;;;;8.90;5.33;;;;;;;;;;4993941;28;20527;-68
2021/06/22 14:11:14;;;;;;;7.80;4.67;;;;;;;;;;4989941;28;20425;-68
2021/06/22 14:13:40;;;;;;;6.33;5.20;;;;;;;;;;5000121;28;20424;-69
2021/06/22 14:16:06;;;;;;;5.50;4.87;;;;;;;;;;4993251;28;20971;-69
2021/06/22 14:18:32;;;;;;;8.57;4.67;;;;;;;;;;4991612;28;20461;-69
2021/06/22 14:20:59;;;;;;;7.53;4.70;;;;;;;;;;4992838;28;21037;-70
2021/06/22 14:23:25;;;;;;;8.03;5.13;;;;;;;;;;4995860;28;20479;-70
2021/06/22 14:25:52;;;;;;;8.80;4.13;;;;;;;;;;4995902;28;20459;-69
2021/06/22 14:28:18;;;;;;;7.57;4.10;;;;;;;;;;5016988;28;20738;-66
2021/06/22 14:30:45;;;;;;;5.20;4.70;;;;;;;;;;4997526;28;20487;-68
2021/06/22 14:33:11;;;;;;;5.13;3.90;;;;;;;;;;4998882;28;20436;-69
2021/06/22 14:35:37;;;;;;;4.20;3.07;;;;;;;;;;4991901;28;20425;-70
2021/06/22 14:38:03;;;;;;;5.40;4.17;;;;;;;;;;4992430;28;22903;-70
2021/06/22 14:40:29;;;;;;;4.17;3.77;;;;;;;;;;4992667;28;20425;-69
2021/06/22 14:42:57;;;;;;;4.00;3.23;;;;;;;;;;4983717;28;20479;-71
2021/06/22 14:45:25;;;;;;;4.70;3.07;;;;;;;;;;4991829;28;20956;-72
2021/06/22 14:47:52;;;;;;;6.00;3.23;;;;;;;;;;4994102;28;20804;-73
2021/06/22 14:50:18;;;;;;;6.97;4.33;;;;;;;;;;4992107;28;20474;-73